createdAt,value
2023-06-11T00:01:45.664Z,95297.03
2023-06-11T00:04:12.319Z,95300.84
2023-06-11T00:06:39.017Z,95301.25
2023-06-11T00:09:05.686Z,95297.84
2023-06-11T00:11:32.182Z,95300.59
2023-06-11T00:13:58.726Z,95305.78
2023-06-11T00:16:25.267Z,95293.84
2023-06-11T00:18:51.821Z,95295.91
2023-06-11T00:21:18.339Z,95298.56
2023-06-11T00:23:44.915Z,95295.91
2023-06-11T00:26:11.493Z,95298.56
2023-06-11T00:28:38.035Z,95290.81
2023-06-11T00:31:04.748Z,95299.16
2023-06-11T00:33:31.372Z,95298.91
2023-06-11T00:35:58.187Z,95293.63
2023-06-11T00:38:24.708Z,95311.97
2023-06-11T00:40:51.233Z,95316.16
2023-06-11T00:43:17.746Z,95316.34
2023-06-11T00:45:44.487Z,95314.38
2023-06-11T00:48:11.071Z,95322.56
2023-06-11T00:50:38.667Z,95313.56
2023-06-11T00:53:05.168Z,95309.50
2023-06-11T00:55:31.680Z,95311.56
2023-06-11T00:57:58.223Z,95313.09
2023-06-11T01:00:24.747Z,95314.59
2023-06-11T01:02:59.352Z,95322.63
2023-06-11T01:05:26.889Z,95328.13
2023-06-11T01:07:54.937Z,95336.59
2023-06-11T01:10:21.911Z,95324.59
2023-06-11T01:12:49.295Z,95326.47
2023-06-11T01:15:15.914Z,95315.84
2023-06-11T01:17:56.031Z,95324.34
2023-06-11T01:20:31.145Z,95321.63
2023-06-11T01:23:17.359Z,95329.44
2023-06-11T01:25:55.743Z,95328.72
2023-06-11T01:28:24.570Z,95325.00
2023-06-11T01:30:53.503Z,95326.19
2023-06-11T01:33:20.824Z,95326.63
2023-06-11T01:35:48.473Z,95330.19
2023-06-11T01:38:15.023Z,95333.25
2023-06-11T01:40:41.818Z,95337.63
2023-06-11T01:43:08.410Z,95328.94
2023-06-11T01:45:34.945Z,95331.84
2023-06-11T01:48:01.485Z,95334.47
2023-06-11T01:50:28.033Z,95330.06
2023-06-11T01:52:54.558Z,95325.41
2023-06-11T01:55:21.104Z,95322.63
2023-06-11T01:57:47.688Z,95315.63
2023-06-11T02:00:14.451Z,95319.09
2023-06-11T02:02:43.605Z,95320.25
2023-06-11T02:05:10.525Z,95317.09
2023-06-11T02:07:37.186Z,95316.53
2023-06-11T02:10:04.100Z,95313.75
2023-06-11T02:12:30.881Z,95305.66
2023-06-11T02:14:57.411Z,95316.19
2023-06-11T02:17:23.949Z,95314.25
2023-06-11T02:19:50.603Z,95307.50
2023-06-11T02:22:17.134Z,95305.06
2023-06-11T02:24:43.644Z,95302.06
2023-06-11T02:27:10.235Z,95311.78
2023-06-11T02:29:36.745Z,95310.53
2023-06-11T02:32:05.296Z,95301.41
2023-06-11T02:34:31.866Z,95306.00
2023-06-11T02:36:58.362Z,95308.91
2023-06-11T02:39:25.078Z,95306.22
2023-06-11T02:41:51.581Z,95309.69
2023-06-11T02:44:18.213Z,95301.41
2023-06-11T02:46:44.841Z,95304.59
2023-06-11T02:49:11.435Z,95317.47
2023-06-11T02:51:37.929Z,95315.38
2023-06-11T02:54:04.610Z,95315.94
2023-06-11T02:56:31.121Z,95317.25
2023-06-11T02:58:57.617Z,95310.53
2023-06-11T03:01:24.270Z,95324.81
2023-06-11T03:03:50.917Z,95318.25
2023-06-11T03:06:17.506Z,95325.22
2023-06-11T03:08:44.016Z,95323.00
2023-06-11T03:11:10.533Z,95312.41
2023-06-11T03:13:37.091Z,95312.91
2023-06-11T03:16:03.861Z,95311.94
2023-06-11T03:18:30.411Z,95308.22
2023-06-11T03:20:56.915Z,95308.22
2023-06-11T03:23:23.417Z,95318.59
2023-06-11T03:25:49.917Z,95312.91
2023-06-11T03:28:17.016Z,95313.38
2023-06-11T03:30:43.534Z,95305.25
2023-06-11T03:33:10.163Z,95309.41
2023-06-11T03:35:36.665Z,95308.03
2023-06-11T03:38:03.231Z,95318.78
2023-06-11T03:40:29.739Z,95308.69
2023-06-11T03:42:58.387Z,95318.44
2023-06-11T03:45:26.420Z,95317.75
2023-06-11T03:47:52.934Z,95315.94
2023-06-11T03:50:19.787Z,95312.97
2023-06-11T03:52:46.289Z,95314.03
2023-06-11T03:55:12.987Z,95323.09
2023-06-11T03:57:39.777Z,95313.56
2023-06-11T04:00:07.249Z,95323.31
2023-06-11T04:02:33.878Z,95318.72
2023-06-11T04:05:00.541Z,95315.66
2023-06-11T04:07:27.104Z,95332.16
2023-06-11T04:09:53.634Z,95322.72
2023-06-11T04:12:20.238Z,95324.38
2023-06-11T04:14:46.777Z,95324.53
2023-06-11T04:17:13.395Z,95328.38
2023-06-11T04:19:39.968Z,95323.75
2023-06-11T04:22:06.531Z,95328.63
2023-06-11T04:24:33.061Z,95331.84
2023-06-11T04:26:59.594Z,95340.56
2023-06-11T04:29:26.095Z,95330.66
2023-06-11T04:31:52.716Z,95338.06
2023-06-11T04:34:19.337Z,95338.44
2023-06-11T04:36:45.825Z,95337.03
2023-06-11T04:39:12.377Z,95339.84
2023-06-11T04:41:38.957Z,95344.47
2023-06-11T04:44:05.638Z,95342.97
2023-06-11T04:46:32.365Z,95336.91
2023-06-11T04:49:00.299Z,95345.81
2023-06-11T04:51:27.534Z,95333.78
2023-06-11T04:53:54.132Z,95345.81
2023-06-11T04:56:21.716Z,95342.59
2023-06-11T04:58:48.274Z,95344.06
2023-06-11T05:01:14.791Z,95352.66
2023-06-11T05:03:41.387Z,95344.16
2023-06-11T05:06:07.888Z,95340.19
2023-06-11T05:08:34.400Z,95345.75
2023-06-11T05:11:00.993Z,95350.94
2023-06-11T05:13:28.081Z,95345.97
2023-06-11T05:15:55.826Z,95354.56
2023-06-11T05:18:23.726Z,95350.69
2023-06-11T05:20:50.400Z,95353.78
2023-06-11T05:23:17.094Z,95356.22
2023-06-11T05:25:43.744Z,95348.59
2023-06-11T05:28:10.254Z,95352.00
2023-06-11T05:30:37.007Z,95352.22
2023-06-11T05:33:04.012Z,95351.53
2023-06-11T05:35:30.598Z,95354.13
2023-06-11T05:37:57.123Z,95353.81
2023-06-11T05:40:23.683Z,95351.53
2023-06-11T05:42:50.408Z,95354.06
2023-06-11T05:45:16.959Z,95354.31
2023-06-11T05:47:43.544Z,95357.22
2023-06-11T05:50:10.764Z,95361.88
2023-06-11T05:52:37.266Z,95357.06
2023-06-11T05:55:04.487Z,95353.72
2023-06-11T05:57:31.076Z,95358.47
2023-06-11T05:59:57.583Z,95353.81
2023-06-11T06:02:24.169Z,95362.28
2023-06-11T06:04:50.778Z,95360.81
2023-06-11T06:07:17.578Z,95363.66
2023-06-11T06:09:44.411Z,95357.16
2023-06-11T06:12:11.112Z,95358.09
2023-06-11T06:14:37.607Z,95358.84
2023-06-11T06:17:04.349Z,95356.72
2023-06-11T06:19:30.917Z,95354.16
2023-06-11T06:21:57.523Z,95361.53
2023-06-11T06:24:24.180Z,95359.19
2023-06-11T06:26:50.832Z,95354.91
2023-06-11T06:29:17.360Z,95354.34
2023-06-11T06:31:44.000Z,95357.66
2023-06-11T06:34:10.581Z,95359.28
2023-06-11T06:36:37.120Z,95358.78
2023-06-11T06:39:03.672Z,95354.03
2023-06-11T06:41:30.165Z,95364.50
2023-06-11T06:43:59.304Z,95357.06
2023-06-11T06:46:26.730Z,95365.38
2023-06-11T06:48:53.414Z,95365.91
2023-06-11T06:51:20.109Z,95369.47
2023-06-11T06:53:47.132Z,95361.97
2023-06-11T06:56:13.789Z,95364.28
2023-06-11T06:58:40.474Z,95363.28
2023-06-11T07:01:07.110Z,95367.84
2023-06-11T07:03:33.644Z,95367.78
2023-06-11T07:06:01.008Z,95366.66
2023-06-11T07:08:27.628Z,95367.53
2023-06-11T07:10:55.654Z,95369.47
2023-06-11T07:13:44.323Z,95369.25
2023-06-11T07:16:10.882Z,95366.56
2023-06-11T07:18:38.132Z,95361.16
2023-06-11T07:21:04.709Z,95366.31
2023-06-11T07:23:31.208Z,95358.56
2023-06-11T07:25:57.778Z,95364.97
2023-06-11T07:28:24.302Z,95359.16
2023-06-11T07:30:50.949Z,95357.25
2023-06-11T07:33:17.508Z,95354.09
2023-06-11T07:35:44.389Z,95360.53
2023-06-11T07:38:11.578Z,95373.09
2023-06-11T07:40:38.179Z,95366.31
2023-06-11T07:43:04.686Z,95360.22
2023-06-11T07:45:31.221Z,95369.34
2023-06-11T07:47:57.783Z,95370.00
2023-06-11T07:50:24.390Z,95378.50
2023-06-11T07:52:50.942Z,95375.31
2023-06-11T07:55:17.470Z,95373.78
2023-06-11T07:57:43.988Z,95370.56
2023-06-11T08:00:11.428Z,95367.31
2023-06-11T08:02:38.320Z,95367.91
2023-06-11T08:05:05.099Z,95366.78
2023-06-11T08:07:31.674Z,95365.22
2023-06-11T08:09:58.172Z,95357.13
2023-06-11T08:12:39.818Z,95363.06
2023-06-11T08:15:06.991Z,95366.34
2023-06-11T08:17:35.642Z,95360.41
2023-06-11T08:20:02.631Z,95367.38
2023-06-11T08:22:29.115Z,95359.78
2023-06-11T08:24:55.606Z,95354.16
2023-06-11T08:27:22.100Z,95362.00
2023-06-11T08:32:32.344Z,95363.56
2023-06-11T08:34:58.853Z,95352.28
2023-06-11T08:37:25.372Z,95352.78
2023-06-11T08:39:51.904Z,95356.06
2023-06-11T08:42:18.544Z,95353.88
2023-06-11T08:44:45.635Z,95348.00
2023-06-11T08:47:12.360Z,95351.22
2023-06-11T08:49:49.958Z,95347.47
2023-06-11T08:52:18.479Z,95354.47
2023-06-11T08:54:45.012Z,95344.81
2023-06-11T08:57:11.557Z,95338.38
2023-06-11T08:59:38.096Z,95342.16
2023-06-11T09:02:07.331Z,95336.25
2023-06-11T09:04:33.964Z,95334.66
2023-06-11T09:07:01.618Z,95338.41
2023-06-11T09:09:28.177Z,95334.09
2023-06-11T09:11:54.683Z,95327.34
2023-06-11T09:14:21.980Z,95325.47
2023-06-11T09:16:49.240Z,95337.81
2023-06-11T09:19:20.953Z,95333.00
2023-06-11T09:21:56.139Z,95327.13
2023-06-11T09:24:24.820Z,95333.56
2023-06-11T09:26:59.114Z,95329.81
2023-06-11T09:29:28.155Z,95328.66
2023-06-11T09:32:23.720Z,95335.94
2023-06-11T09:35:01.017Z,95334.59
2023-06-11T09:37:34.442Z,95326.03
2023-06-11T09:40:01.072Z,95334.59
2023-06-11T09:42:29.984Z,95332.50
2023-06-11T09:44:59.903Z,95327.91
2023-06-11T09:47:29.494Z,95333.03
2023-06-11T09:49:59.270Z,95316.06
2023-06-11T09:52:28.172Z,95320.91
2023-06-11T09:54:55.919Z,95317.41
2023-06-11T09:57:23.018Z,95316.34
2023-06-11T09:59:54.130Z,95319.03
2023-06-11T10:02:21.026Z,95315.50
2023-06-11T10:04:47.741Z,95319.25
2023-06-11T10:07:16.658Z,95318.47
2023-06-11T10:09:45.167Z,95303.94
2023-06-11T10:12:14.673Z,95306.09
2023-06-11T10:14:50.680Z,95314.16
2023-06-11T10:17:17.409Z,95307.13
2023-06-11T10:19:49.220Z,95302.81
2023-06-11T10:22:22.653Z,95297.97
2023-06-11T10:25:03.290Z,95303.34
2023-06-11T10:27:37.948Z,95306.34
2023-06-11T10:30:08.625Z,95302.28
2023-06-11T10:32:35.903Z,95302.28
2023-06-11T10:35:05.014Z,95299.59
2023-06-11T10:37:34.684Z,95300.63
2023-06-11T10:40:01.274Z,95298.47
2023-06-11T10:42:34.577Z,95289.34
2023-06-11T10:45:01.187Z,95293.09
2023-06-11T10:47:29.217Z,95290.13
2023-06-11T10:50:10.669Z,95283.41
2023-06-11T10:52:48.961Z,95287.16
2023-06-11T10:55:21.580Z,95281.16
2023-06-11T10:57:52.277Z,95277.91
2023-06-11T11:00:19.328Z,95276.69
2023-06-11T11:02:47.388Z,95281.03
2023-06-11T11:05:14.233Z,95272.56
2023-06-11T11:07:41.080Z,95271.69
2023-06-11T11:10:08.620Z,95278.06
2023-06-11T11:12:39.170Z,95266.31
2023-06-11T11:15:06.223Z,95270.75
2023-06-11T11:17:34.167Z,95273.16
2023-06-11T11:20:00.862Z,95273.44
2023-06-11T11:22:29.141Z,95267.44
2023-06-11T11:25:00.778Z,95268.53
2023-06-11T11:27:27.852Z,95264.34
2023-06-11T11:29:54.782Z,95274.38
2023-06-11T11:32:22.755Z,95270.75
2023-06-11T11:34:49.462Z,95261.88
2023-06-11T11:37:16.226Z,95256.56
2023-06-11T11:39:42.853Z,95270.34
2023-06-11T11:42:09.367Z,95259.00
2023-06-11T11:44:43.209Z,95262.41
2023-06-11T11:47:10.878Z,95252.31
2023-06-11T11:49:38.343Z,95251.81
2023-06-11T11:52:08.375Z,95250.66
2023-06-11T11:54:35.108Z,95247.69
2023-06-11T11:57:07.940Z,95239.75
2023-06-11T11:59:38.684Z,95245.72
2023-06-11T12:02:05.596Z,95228.97
2023-06-11T12:04:35.814Z,95235.00
2023-06-11T12:07:03.945Z,95232.00
2023-06-11T12:09:30.456Z,95224.31
2023-06-11T12:12:05.016Z,95216.25
2023-06-11T12:14:32.313Z,95215.38
2023-06-11T12:16:58.910Z,95212.69
2023-06-11T12:19:25.832Z,95208.03
2023-06-11T12:21:52.375Z,95206.38
2023-06-11T12:24:19.246Z,95206.66
2023-06-11T12:26:50.868Z,95194.38
2023-06-11T12:29:18.664Z,95195.13
2023-06-11T12:31:45.375Z,95204.38
2023-06-11T12:34:11.880Z,95202.25
2023-06-11T12:36:38.403Z,95198.63
2023-06-11T12:39:05.034Z,95204.78
2023-06-11T12:41:32.376Z,95187.72
2023-06-11T12:43:59.245Z,95186.63
2023-06-11T12:46:25.882Z,95184.41
2023-06-11T12:48:52.409Z,95189.88
2023-06-11T12:51:18.968Z,95185.31
2023-06-11T12:53:45.484Z,95186.75
2023-06-11T12:56:11.989Z,95184.47
2023-06-11T12:58:38.488Z,95175.22
2023-06-11T13:01:05.189Z,95170.88
2023-06-11T13:03:31.840Z,95166.91
2023-06-11T13:05:58.390Z,95170.94
2023-06-11T13:08:25.276Z,95154.41
2023-06-11T13:10:52.034Z,95156.94
2023-06-11T13:13:18.548Z,95152.72
2023-06-11T13:15:45.058Z,95149.63
2023-06-11T13:18:11.654Z,95147.25
2023-06-11T13:20:38.182Z,95150.34
2023-06-11T13:23:04.770Z,95152.03
2023-06-11T13:25:31.322Z,95162.06
2023-06-11T13:27:57.873Z,95150.53
2023-06-11T13:30:24.425Z,95158.84
2023-06-11T13:32:51.006Z,95157.28
2023-06-11T13:35:17.620Z,95156.31
2023-06-11T13:37:44.253Z,95146.84
2023-06-11T13:40:11.145Z,95149.00
2023-06-11T13:42:38.125Z,95144.38
2023-06-11T13:45:05.861Z,95149.63
2023-06-11T13:47:32.519Z,95142.72
2023-06-11T13:49:59.150Z,95143.97
2023-06-11T13:52:25.694Z,95152.09
2023-06-11T13:54:52.366Z,95147.81
2023-06-11T13:57:18.963Z,95143.94
2023-06-11T13:59:45.472Z,95143.94
2023-06-11T14:02:12.104Z,95141.38
2023-06-11T14:04:38.688Z,95145.66
2023-06-11T14:07:05.355Z,95135.28
2023-06-11T14:09:31.882Z,95149.19
2023-06-11T14:11:58.405Z,95143.81
2023-06-11T14:14:24.932Z,95142.31
2023-06-11T14:16:51.802Z,95141.66
2023-06-11T14:19:18.507Z,95131.41
2023-06-11T14:21:45.088Z,95131.56
2023-06-11T14:24:11.632Z,95132.44
2023-06-11T14:26:38.209Z,95126.03
2023-06-11T14:29:04.722Z,95134.44
2023-06-11T14:31:31.345Z,95129.84
2023-06-11T14:33:57.847Z,95129.16
2023-06-11T14:36:24.428Z,95123.81
2023-06-11T14:38:50.976Z,95119.00
2023-06-11T14:41:17.666Z,95122.00
2023-06-11T14:43:44.240Z,95118.31
2023-06-11T14:46:10.791Z,95119.41
2023-06-11T14:48:37.354Z,95106.88
2023-06-11T14:51:06.360Z,95105.34
2023-06-11T14:53:33.022Z,95100.16
2023-06-11T14:55:59.802Z,95087.13
2023-06-11T14:58:26.392Z,95092.72
2023-06-11T15:00:53.056Z,95101.59
2023-06-11T15:03:19.631Z,95094.88
2023-06-11T15:05:46.288Z,95082.47
2023-06-11T15:08:12.824Z,95074.25
2023-06-11T15:10:40.420Z,95083.16
2023-06-11T15:13:07.193Z,95083.19
2023-06-11T15:15:33.702Z,95085.38
2023-06-11T15:18:00.315Z,95080.81
2023-06-11T15:20:26.906Z,95077.47
2023-06-11T15:22:53.417Z,95077.47
2023-06-11T15:25:19.914Z,95072.59
2023-06-11T15:27:46.429Z,95076.81
2023-06-11T15:30:13.289Z,95087.75
2023-06-11T15:32:40.029Z,95087.84
2023-06-11T15:35:07.055Z,95080.66
2023-06-11T15:37:33.687Z,95083.22
2023-06-11T15:40:00.936Z,95091.28
2023-06-11T15:42:27.570Z,95092.53
2023-06-11T15:44:54.161Z,95085.22
2023-06-11T15:47:20.816Z,95101.88
2023-06-11T15:49:47.398Z,95105.16
2023-06-11T15:52:14.093Z,95100.91
2023-06-11T15:54:40.695Z,95104.09
2023-06-11T15:57:07.467Z,95098.31
2023-06-11T15:59:34.078Z,95090.00
2023-06-11T16:02:00.667Z,95088.16
2023-06-11T16:04:27.320Z,95079.25
2023-06-11T16:06:53.942Z,95080.06
2023-06-11T16:09:20.489Z,95071.69
2023-06-11T16:11:47.019Z,95086.84
2023-06-11T16:14:13.591Z,95082.22
2023-06-11T16:16:40.161Z,95071.81
2023-06-11T16:19:06.721Z,95085.75
2023-06-11T16:21:33.223Z,95078.41
2023-06-11T16:23:59.787Z,95081.06
2023-06-11T16:26:26.319Z,95083.47
2023-06-11T16:28:52.954Z,95084.28
2023-06-11T16:31:19.507Z,95086.50
2023-06-11T16:33:57.314Z,95083.66
2023-06-11T16:36:25.205Z,95084.47
2023-06-11T16:38:51.713Z,95078.75
2023-06-11T16:41:18.779Z,95084.06
2023-06-11T16:43:45.295Z,95082.88
2023-06-11T16:46:11.818Z,95083.69
2023-06-11T16:48:38.438Z,95092.91
2023-06-11T16:51:04.974Z,95087.72
2023-06-11T16:53:31.603Z,95086.28
2023-06-11T16:55:58.095Z,95077.50
2023-06-11T16:58:24.608Z,95096.50
2023-06-11T17:00:51.209Z,95080.00
2023-06-11T17:03:17.777Z,95079.22
2023-06-11T17:05:44.676Z,95085.94
2023-06-11T17:08:11.279Z,95078.97
2023-06-11T17:10:37.817Z,95076.78
2023-06-11T17:13:04.383Z,95079.66
2023-06-11T17:15:30.916Z,95088.84
2023-06-11T17:17:57.542Z,95083.09
2023-06-11T17:20:24.102Z,95089.81
2023-06-11T17:22:50.673Z,95094.78
2023-06-11T17:25:17.512Z,95092.09
2023-06-11T17:27:44.607Z,95094.22
2023-06-11T17:30:11.707Z,95093.03
2023-06-11T17:32:38.580Z,95098.25
2023-06-11T17:35:05.715Z,95096.22
2023-06-11T17:37:32.207Z,95098.19
2023-06-11T17:39:58.763Z,95095.09
2023-06-11T17:42:25.322Z,95095.84
2023-06-11T17:44:52.018Z,95108.19
2023-06-11T17:47:18.727Z,95103.63
2023-06-11T17:49:49.449Z,95106.22
2023-06-11T17:52:16.577Z,95114.38
2023-06-11T17:54:43.217Z,95106.69
2023-06-11T17:57:09.878Z,95103.41
2023-06-11T17:59:36.446Z,95107.16
2023-06-11T18:02:05.569Z,95108.97
2023-06-11T18:04:32.361Z,95111.09
2023-06-11T18:06:58.870Z,95111.47
2023-06-11T18:09:25.391Z,95109.03
2023-06-11T18:11:51.934Z,95110.41
2023-06-11T18:14:18.506Z,95112.28
2023-06-11T18:16:45.114Z,95106.34
2023-06-11T18:19:11.763Z,95117.59
2023-06-11T18:21:38.444Z,95104.44
2023-06-11T18:24:05.470Z,95114.38
2023-06-11T18:26:33.722Z,95122.13
2023-06-11T18:29:00.278Z,95119.16
2023-06-11T18:31:26.866Z,95120.84
2023-06-11T18:33:54.105Z,95124.06
2023-06-11T18:36:20.620Z,95115.88
2023-06-11T18:38:47.154Z,95112.75
2023-06-11T18:41:13.686Z,95124.28
2023-06-11T18:43:40.175Z,95115.09
2023-06-11T18:46:06.762Z,95122.88
2023-06-11T18:48:33.412Z,95117.44
2023-06-11T18:50:59.936Z,95122.22
2023-06-11T18:53:26.480Z,95133.50
2023-06-11T18:55:53.000Z,95118.38
2023-06-11T18:58:19.502Z,95129.13
2023-06-11T19:00:49.093Z,95134.38
2023-06-11T19:03:15.686Z,95136.94
2023-06-11T19:05:42.311Z,95138.31
2023-06-11T19:08:08.862Z,95135.16
2023-06-11T19:10:35.664Z,95134.03
2023-06-11T19:13:02.201Z,95131.81
2023-06-11T19:15:28.730Z,95144.75
2023-06-11T19:17:55.313Z,95137.22
2023-06-11T19:20:21.942Z,95139.41
2023-06-11T19:22:48.438Z,95133.00
2023-06-11T19:25:14.980Z,95142.06
2023-06-11T19:27:41.560Z,95142.06
2023-06-11T19:30:08.390Z,95139.78
2023-06-11T19:32:35.080Z,95138.16
2023-06-11T19:35:01.878Z,95140.63
2023-06-11T19:37:28.399Z,95139.75
2023-06-11T19:39:54.927Z,95134.47
2023-06-11T19:42:21.492Z,95141.56
2023-06-11T19:44:48.015Z,95146.19
2023-06-11T19:47:14.788Z,95150.91
2023-06-11T19:49:41.358Z,95159.53
2023-06-11T19:52:08.028Z,95144.50
2023-06-11T19:54:50.016Z,95146.13
2023-06-11T19:57:18.921Z,95149.91
2023-06-11T19:59:45.610Z,95139.66
2023-06-11T20:02:12.276Z,95158.16
2023-06-11T20:04:38.865Z,95153.03
2023-06-11T20:07:05.589Z,95163.66
2023-06-11T20:09:32.172Z,95158.34
2023-06-11T20:11:58.675Z,95171.22
2023-06-11T20:14:25.206Z,95173.31
2023-06-11T20:16:51.845Z,95183.56
2023-06-11T20:19:21.581Z,95186.03
2023-06-11T20:21:48.178Z,95184.09
2023-06-11T20:24:14.791Z,95182.13
2023-06-11T20:26:41.373Z,95191.78
2023-06-11T20:29:07.880Z,95190.78
2023-06-11T20:31:34.449Z,95198.84
2023-06-11T20:34:00.963Z,95201.06
2023-06-11T20:36:27.486Z,95199.44
2023-06-11T20:38:54.021Z,95194.59
2023-06-11T20:41:20.542Z,95196.78
2023-06-11T20:43:47.058Z,95201.06
2023-06-11T20:46:27.899Z,95199.41
2023-06-11T20:48:55.229Z,95202.03
2023-06-11T20:51:21.787Z,95204.19
2023-06-11T20:53:48.320Z,95205.81
2023-06-11T20:56:14.873Z,95202.28
2023-06-11T20:58:41.424Z,95203.63
2023-06-11T21:01:08.051Z,95208.97
2023-06-11T21:03:34.704Z,95207.31
2023-06-11T21:06:01.267Z,95206.19
2023-06-11T21:08:27.765Z,95212.66
2023-06-11T21:10:54.272Z,95206.44
2023-06-11T21:13:20.808Z,95212.03
2023-06-11T21:15:47.439Z,95202.03
2023-06-11T21:18:14.002Z,95213.97
2023-06-11T21:20:40.632Z,95203.50
2023-06-11T21:23:07.528Z,95199.44
2023-06-11T21:25:34.304Z,95203.47
2023-06-11T21:28:00.973Z,95208.00
2023-06-11T21:30:27.484Z,95207.59
2023-06-11T21:32:54.049Z,95209.44
2023-06-11T21:35:20.589Z,95203.63
2023-06-11T21:37:47.119Z,95209.13
2023-06-11T21:40:14.114Z,95204.34
2023-06-11T21:42:40.900Z,95206.16
2023-06-11T21:45:07.826Z,95203.94
2023-06-11T21:47:36.969Z,95206.09
2023-06-11T21:50:03.675Z,95207.19
2023-06-11T21:52:30.164Z,95202.38
2023-06-11T21:54:56.693Z,95200.25
2023-06-11T21:57:23.496Z,95193.56
2023-06-11T21:59:50.129Z,95196.34
2023-06-11T22:02:16.672Z,95192.53
2023-06-11T22:04:43.211Z,95201.19
2023-06-11T22:07:10.219Z,95189.44
2023-06-11T22:09:36.744Z,95190.25
2023-06-11T22:12:03.484Z,95191.38
2023-06-11T22:14:30.018Z,95192.31
2023-06-11T22:16:56.967Z,95189.16
2023-06-11T22:19:23.695Z,95198.31
2023-06-11T22:21:53.160Z,95200.53
2023-06-11T22:24:19.882Z,95198.91
2023-06-11T22:26:46.482Z,95205.38
2023-06-11T22:29:13.273Z,95205.91
2023-06-11T22:31:41.178Z,95205.13
2023-06-11T22:34:07.954Z,95209.69
2023-06-11T22:36:34.549Z,95210.78
2023-06-11T22:39:01.119Z,95223.13
2023-06-11T22:41:27.701Z,95217.75
2023-06-11T22:43:54.234Z,95221.00
2023-06-11T22:46:20.857Z,95232.56
2023-06-11T22:48:47.452Z,95233.38
2023-06-11T22:51:14.150Z,95231.22
2023-06-11T22:53:40.682Z,95240.38
2023-06-11T22:56:07.204Z,95242.53
2023-06-11T22:58:33.753Z,95239.84
2023-06-11T23:01:00.276Z,95247.91
2023-06-11T23:03:26.846Z,95243.06
2023-06-11T23:05:53.521Z,95244.66
2023-06-11T23:08:20.032Z,95239.25
2023-06-11T23:10:46.576Z,95245.13
2023-06-11T23:13:13.166Z,95243.75
2023-06-11T23:15:39.664Z,95251.78
2023-06-11T23:18:07.404Z,95247.78
2023-06-11T23:20:34.199Z,95249.13
2023-06-11T23:23:00.701Z,95256.94
2023-06-11T23:25:27.235Z,95252.38
2023-06-11T23:27:54.281Z,95255.56
2023-06-11T23:30:21.532Z,95260.09
2023-06-11T23:32:48.173Z,95255.22
2023-06-11T23:35:15.430Z,95258.69
2023-06-11T23:37:43.128Z,95260.00
2023-06-11T23:40:10.745Z,95263.53
2023-06-11T23:42:37.427Z,95261.41
2023-06-11T23:45:04.100Z,95261.91
2023-06-11T23:47:30.748Z,95264.84
2023-06-11T23:49:57.752Z,95257.22
2023-06-11T23:52:24.279Z,95267.00
2023-06-11T23:54:50.873Z,95265.59
2023-06-11T23:57:17.412Z,95266.13
2023-06-11T23:59:44.635Z,95256.44
